Weather - Helsinki Query any day in the database

Current weather  

Weather data for a selected day (2006-01-01 -2020-10-31)
Enter date:     <-     scroll days         ->
day curves
Low temperature°C -21.009:20
High temperature°C -11.023:20
Low wind chill°C -28.809:20
Average temperature°C -15.5 
High wind speed (10 min) m/s 4.012:20
Low pressurehPa 1032.023:50
High pressurehPa 1036.010:20
Low R.H% 7608:20
High R.H% 9223:50
Day weather data as a table
Date Time Temp
°C
Chill
°C
Pressure
hPA
Wind
m/s
Hum
%
Precip
mm
2014-01-20 23:50:00 -12.0  -17.9  1032.0 3.0 92 -
2014-01-20 23:20:00 -11.0  -15.3  1032.0 2.0 85 -
2014-01-20 22:50:00 -12.0  -17.9  1032.0 3.0 92 -
2014-01-20 21:50:00 -12.0  -17.9  1032.0 3.0 85 -
2014-01-20 21:20:00 -12.0  -17.9  1032.0 3.0 85 -
2014-01-20 20:50:00 -13.0  -19.1  1033.0 3.0 92 -
2014-01-20 20:20:00 -13.0  -19.1  1033.0 3.0 84 -
2014-01-20 19:50:00 -13.0  -19.1  1033.0 3.0 84 -
2014-01-20 19:20:00 -13.0  -19.1  1033.0 3.0 84 -
2014-01-20 18:50:00 -14.0  -20.3  1033.0 3.0 84 -
2014-01-20 18:20:00 -14.0  -20.3  1033.0 3.0 84 -
2014-01-20 17:50:00 -13.0  -19.1  1034.0 3.0 84 -
2014-01-20 17:20:00 -13.0  -19.1  1034.0 3.0 84 -
2014-01-20 16:50:00 -13.0  -19.1  1034.0 3.0 84 -
2014-01-20 16:20:00 -13.0  -19.1  1034.0 3.0 84 -
2014-01-20 15:50:00 -14.0  -20.3  1034.0 3.0 84 -
2014-01-20 15:20:00 -13.0  -19.1  1034.0 3.0 78 -
2014-01-20 14:50:00 -12.0  -17.9  1034.0 3.0 78 -
2014-01-20 14:20:00 -12.0  -17.9  1034.0 3.0 85 -
2014-01-20 13:50:00 -12.0  -17.9  1035.0 3.0 78 -
2014-01-20 13:20:00 -12.0  -17.9  1035.0 3.0 78 -
2014-01-20 12:50:00 -12.0  -17.9  1035.0 3.0 78 -
2014-01-20 12:20:00 -14.0  -21.5  1035.0 4.0 77 -
2014-01-20 11:50:00 -14.0  -20.3  1035.0 3.0 77 -
2014-01-20 11:20:00 -15.0  -20.0  1035.0 2.0 84 -
2014-01-20 10:50:00 -18.0  -25.1  1035.0 3.0 84 -
2014-01-20 10:20:00 -19.0  -26.4  1036.0 3.0 84 -
2014-01-20 09:50:00 -20.0  -27.6  1036.0 3.0 76 -
2014-01-20 09:20:00 -21.0  -28.8  1035.0 3.0 83 -
2014-01-20 08:50:00 -19.0  -19.0  1035.0 0.0 77 -
2014-01-20 08:20:00 -20.0  -23.0  1035.0 1.0 76 -
2014-01-20 07:50:00 -19.0  -21.9  1035.0 1.0 77 -
2014-01-20 06:20:00 -20.0  -23.0  1035.0 1.0 84 -
2014-01-20 05:50:00 -20.0  -20.0  1036.0 0.0 84 -
2014-01-20 05:20:00 -20.0  -25.8  1036.0 2.0 84 -
2014-01-20 04:50:00 -19.0  -21.9  1036.0 1.0 84 -
2014-01-20 04:20:00 -19.0  -24.6  1036.0 2.0 84 -
2014-01-20 03:50:00 -18.0  -25.1  1036.0 3.0 84 -
2014-01-20 03:20:00 -19.0  -27.7  1036.0 4.0 84 -
2014-01-20 02:50:00 -19.0  -27.7  1036.0 4.0 91 -
2014-01-20 02:20:00 -18.0  -25.1  1036.0 3.0 84 -
2014-01-20 01:50:00 -18.0  -25.1  1036.0 3.0 84 -
2014-01-20 01:20:00 -17.0  -19.7  1036.0 1.0 84 -
2014-01-20 00:50:00 -18.0  -20.8  1036.0 1.0 84 -
Unit conversions: